Aérodrome :
LOGIN :

S'inscrire | Disclaimer

   EN    FR    IT 

 










Légende :    VFR   VFR Marginal   IFR   IFR Intensif   IFR Très Intensif
Visi : 
Plafond : 
>= 8 km
>= 3000ft
5 à 8 km
1000 à 3000 ft
1500m à 5 km
500 à 1000 ft
800 à 1500m
200 à 500 ft
< 800m
< 200 ft
Symboles :   Orages  Brouillard  Fortes neiges  Fortes précipitations  Vent > 20 kt
SIGMETs :   Divers  Orages  Givrage  Turbulence  Onde Orograph.  Cendres Volcan.







- Altitude de l'aérodrome : 659 ft
- Code IATA : LYN
- Voir les cartes d'approche


LFLY - Lyon Bron

DERNIER METAR :
  • 220730Z AUTO 34005KT 300V010 CAVOK 15/08 Q1006 NOSIG

METARs EXPIRÉS :
  • 220700Z AUTO VRB01KT CAVOK 14/09 Q1006 NOSIG
  • 220630Z AUTO VRB02KT CAVOK 13/08 Q1007 NOSIG
  • 220600Z AUTO 00000KT CAVOK 13/08 Q1007 NOSIG
  • 220530Z AUTO 00000KT CAVOK 12/07 Q1007 NOSIG
  • 220500Z AUTO 33002KT CAVOK 13/07 Q1007 NOSIG

TAF TAF LFLY
Valide du 22 à 06h jusqu'au 23 à 06h UTC


220500Z 2206/2306 VRB03KT CAVOK
BECMG 2220/2222 19008KT
BECMG 2300/2303 VRB02KT
ATIS : +33 4 72 15 87 96
Pas de NOTAMs connus pour ce terrain.
1 SIGMET publié pour la FIR Marseille (LFMM) :
 
Turbulence forte
LFMM SIGMET 3 VALID 220700/221100 LFPW
LFMM MARSEILLE FIR/UIR SEV TURB FCST WI N4600 E00700 - N4400 E00700 - N4315 E00945 - N4115 E00945 - N4115 E00800 - N4230 E00430 - N4600 E00700 SFC/FL100 STNR NC=



MET'MAP, la Météo Aéronautique d'un coup d'oeil ! - Copyright ORBIFLY Décembre 2007 - Disclaimer

ORBIFLY MET'MAP TEAM :

Programmation & Développement : Alexandra Zaïnal
Conception & Développement : Baudouin d'Aumeries
Co-Programmation & Développement : Marc-Olivier Méhu
Soutien technique & logistique : Manuel Goepfert

Contact : metmap@orbifly.com




SOURCES & CREDITS :

   NOAA